sensor_id;sensor_type;location;lat;lon;timestamp;temperature;humidity
27741;DHT22;15134;48.768;9.184;2023-08-17T00:00:29;22.40;99.90
27741;DHT22;15134;48.768;9.184;2023-08-17T00:02:55;22.40;99.90
27741;DHT22;15134;48.768;9.184;2023-08-17T00:05:21;22.30;99.90
27741;DHT22;15134;48.768;9.184;2023-08-17T00:07:47;22.30;99.90
27741;DHT22;15134;48.768;9.184;2023-08-17T00:10:13;22.30;99.90
27741;DHT22;15134;48.768;9.184;2023-08-17T00:12:39;22.30;99.90
27741;DHT22;15134;48.768;9.184;2023-08-17T00:15:05;22.30;99.90
27741;DHT22;15134;48.768;9.184;2023-08-17T00:17:31;22.30;99.90
27741;DHT22;15134;48.768;9.184;2023-08-17T00:19:57;22.30;99.90
27741;DHT22;15134;48.768;9.184;2023-08-17T00:22:22;22.40;99.90
27741;DHT22;15134;48.768;9.184;2023-08-17T00:24:48;22.40;99.90
27741;DHT22;15134;48.768;9.184;2023-08-17T00:27:14;22.40;99.90
27741;DHT22;15134;48.768;9.184;2023-08-17T00:29:40;22.40;99.90
27741;DHT22;15134;48.768;9.184;2023-08-17T00:32:05;22.40;99.90
27741;DHT22;15134;48.768;9.184;2023-08-17T00:34:31;22.40;99.90
27741;DHT22;15134;48.768;9.184;2023-08-17T00:36:58;22.40;99.90
27741;DHT22;15134;48.768;9.184;2023-08-17T00:39:24;22.50;99.90
27741;DHT22;15134;48.768;9.184;2023-08-17T00:41:50;22.40;99.90
27741;DHT22;15134;48.768;9.184;2023-08-17T00:44:16;22.40;99.90
27741;DHT22;15134;48.768;9.184;2023-08-17T00:46:41;22.30;99.90
27741;DHT22;15134;48.768;9.184;2023-08-17T00:49:08;22.30;99.90
27741;DHT22;15134;48.768;9.184;2023-08-17T00:51:34;22.30;99.90
27741;DHT22;15134;48.768;9.184;2023-08-17T00:54:01;22.30;99.90
27741;DHT22;15134;48.768;9.184;2023-08-17T00:56:29;22.30;99.90
27741;DHT22;15134;48.768;9.184;2023-08-17T00:58:55;22.40;99.90
27741;DHT22;15134;48.768;9.184;2023-08-17T01:01:22;22.40;99.90
27741;DHT22;15134;48.768;9.184;2023-08-17T01:03:48;22.40;99.90
27741;DHT22;15134;48.768;9.184;2023-08-17T01:06:15;22.30;99.90
27741;DHT22;15134;48.768;9.184;2023-08-17T01:08:42;22.30;99.90
27741;DHT22;15134;48.768;9.184;2023-08-17T01:11:34;22.20;99.90
27741;DHT22;15134;48.768;9.184;2023-08-17T01:17:03;22.20;99.90
27741;DHT22;15134;48.768;9.184;2023-08-17T01:19:30;22.10;99.90
27741;DHT22;15134;48.768;9.184;2023-08-17T01:22:07;22.00;99.90
27741;DHT22;15134;48.768;9.184;2023-08-17T01:24:33;22.10;99.90
27741;DHT22;15134;48.768;9.184;2023-08-17T01:26:59;22.20;99.90
27741;DHT22;15134;48.768;9.184;2023-08-17T01:29:25;22.20;99.90
27741;DHT22;15134;48.768;9.184;2023-08-17T01:32:07;22.30;99.90
27741;DHT22;15134;48.768;9.184;2023-08-17T01:34:40;22.30;99.90
27741;DHT22;15134;48.768;9.184;2023-08-17T01:37:07;22.30;99.90
27741;DHT22;15134;48.768;9.184;2023-08-17T01:39:38;22.30;99.90
27741;DHT22;15134;48.768;9.184;2023-08-17T01:42:06;22.40;99.90
27741;DHT22;15134;48.768;9.184;2023-08-17T01:44:33;22.40;99.90
27741;DHT22;15134;48.768;9.184;2023-08-17T01:46:59;22.40;99.90
27741;DHT22;15134;48.768;9.184;2023-08-17T01:49:24;22.40;99.90
27741;DHT22;15134;48.768;9.184;2023-08-17T01:51:52;22.40;99.90
27741;DHT22;15134;48.768;9.184;2023-08-17T01:54:18;22.40;99.90
27741;DHT22;15134;48.768;9.184;2023-08-17T01:56:43;22.50;99.90
27741;DHT22;15134;48.768;9.184;2023-08-17T01:59:09;22.50;99.90
27741;DHT22;15134;48.768;9.184;2023-08-17T02:01:35;22.50;99.90
27741;DHT22;15134;48.768;9.184;2023-08-17T02:04:03;22.50;99.90
27741;DHT22;15134;48.768;9.184;2023-08-17T02:06:30;22.40;99.90
27741;DHT22;15134;48.768;9.184;2023-08-17T02:08:56;22.50;99.90
27741;DHT22;15134;48.768;9.184;2023-08-17T02:11:22;22.40;99.90
27741;DHT22;15134;48.768;9.184;2023-08-17T02:13:50;22.40;99.90
27741;DHT22;15134;48.768;9.184;2023-08-17T02:16:16;22.40;99.90
27741;DHT22;15134;48.768;9.184;2023-08-17T02:18:42;22.40;99.90
27741;DHT22;15134;48.768;9.184;2023-08-17T02:21:10;22.40;99.90
27741;DHT22;15134;48.768;9.184;2023-08-17T02:23:39;22.30;99.90
27741;DHT22;15134;48.768;9.184;2023-08-17T02:26:04;22.30;99.90
27741;DHT22;15134;48.768;9.184;2023-08-17T02:28:31;22.30;99.90
27741;DHT22;15134;48.768;9.184;2023-08-17T02:30:58;22.30;99.90
27741;DHT22;15134;48.768;9.184;2023-08-17T02:33:26;22.30;99.90
27741;DHT22;15134;48.768;9.184;2023-08-17T02:35:52;22.30;99.90
27741;DHT22;15134;48.768;9.184;2023-08-17T02:38:18;22.30;99.90
27741;DHT22;15134;48.768;9.184;2023-08-17T02:40:44;22.30;99.90
27741;DHT22;15134;48.768;9.184;2023-08-17T02:43:10;22.30;99.90
27741;DHT22;15134;48.768;9.184;2023-08-17T02:45:36;22.40;99.90
27741;DHT22;15134;48.768;9.184;2023-08-17T02:48:03;22.40;99.90
27741;DHT22;15134;48.768;9.184;2023-08-17T02:50:29;22.40;99.90
27741;DHT22;15134;48.768;9.184;2023-08-17T02:52:54;22.30;99.90
27741;DHT22;15134;48.768;9.184;2023-08-17T02:55:20;22.30;99.90
27741;DHT22;15134;48.768;9.184;2023-08-17T02:57:52;22.30;99.90
27741;DHT22;15134;48.768;9.184;2023-08-17T03:00:18;22.30;99.90
27741;DHT22;15134;48.768;9.184;2023-08-17T03:02:46;22.30;99.90
27741;DHT22;15134;48.768;9.184;2023-08-17T03:05:11;22.30;99.90
27741;DHT22;15134;48.768;9.184;2023-08-17T03:07:38;22.20;99.90
27741;DHT22;15134;48.768;9.184;2023-08-17T03:10:04;22.30;99.90
27741;DHT22;15134;48.768;9.184;2023-08-17T03:12:30;22.30;99.90
27741;DHT22;15134;48.768;9.184;2023-08-17T03:14:56;22.30;99.90
27741;DHT22;15134;48.768;9.184;2023-08-17T03:17:22;22.30;99.90
27741;DHT22;15134;48.768;9.184;2023-08-17T03:19:48;22.30;99.90
27741;DHT22;15134;48.768;9.184;2023-08-17T03:22:15;22.30;99.90
27741;DHT22;15134;48.768;9.184;2023-08-17T03:24:41;22.30;99.90
27741;DHT22;15134;48.768;9.184;2023-08-17T03:27:07;22.30;99.90
27741;DHT22;15134;48.768;9.184;2023-08-17T03:29:34;22.30;99.90
27741;DHT22;15134;48.768;9.184;2023-08-17T03:32:00;22.30;99.90
27741;DHT22;15134;48.768;9.184;2023-08-17T03:34:25;22.20;99.90
27741;DHT22;15134;48.768;9.184;2023-08-17T03:36:51;22.20;99.90
27741;DHT22;15134;48.768;9.184;2023-08-17T03:39:17;22.20;99.90
27741;DHT22;15134;48.768;9.184;2023-08-17T03:41:43;22.20;99.90
27741;DHT22;15134;48.768;9.184;2023-08-17T03:44:10;22.20;99.90
27741;DHT22;15134;48.768;9.184;2023-08-17T03:46:38;22.20;99.90
27741;DHT22;15134;48.768;9.184;2023-08-17T03:49:04;22.20;99.90
27741;DHT22;15134;48.768;9.184;2023-08-17T03:51:30;22.10;99.90
27741;DHT22;15134;48.768;9.184;2023-08-17T03:53:58;22.10;99.90
27741;DHT22;15134;48.768;9.184;2023-08-17T03:56:23;22.10;99.90
27741;DHT22;15134;48.768;9.184;2023-08-17T03:58:50;22.10;99.90
27741;DHT22;15134;48.768;9.184;2023-08-17T04:01:16;22.10;99.90
27741;DHT22;15134;48.768;9.184;2023-08-17T04:03:42;22.00;99.90
27741;DHT22;15134;48.768;9.184;2023-08-17T04:06:09;22.00;99.90
27741;DHT22;15134;48.768;9.184;2023-08-17T04:08:38;22.00;99.90
27741;DHT22;15134;48.768;9.184;2023-08-17T04:11:05;21.90;99.90
27741;DHT22;15134;48.768;9.184;2023-08-17T04:13:31;21.90;99.90
27741;DHT22;15134;48.768;9.184;2023-08-17T04:15:57;21.90;99.90
27741;DHT22;15134;48.768;9.184;2023-08-17T04:18:23;21.90;99.90
27741;DHT22;15134;48.768;9.184;2023-08-17T04:20:50;21.90;99.90
27741;DHT22;15134;48.768;9.184;2023-08-17T04:23:16;21.90;99.90
27741;DHT22;15134;48.768;9.184;2023-08-17T04:25:43;21.90;99.90
27741;DHT22;15134;48.768;9.184;2023-08-17T04:28:10;21.90;99.90
27741;DHT22;15134;48.768;9.184;2023-08-17T04:30:37;21.90;99.90
27741;DHT22;15134;48.768;9.184;2023-08-17T04:33:04;21.90;99.90
27741;DHT22;15134;48.768;9.184;2023-08-17T04:35:30;21.80;99.90
27741;DHT22;15134;48.768;9.184;2023-08-17T04:37:55;21.80;99.90
27741;DHT22;15134;48.768;9.184;2023-08-17T04:40:22;21.70;99.90
27741;DHT22;15134;48.768;9.184;2023-08-17T04:42:48;21.70;99.90
27741;DHT22;15134;48.768;9.184;2023-08-17T04:45:14;21.70;99.90
27741;DHT22;15134;48.768;9.184;2023-08-17T04:47:43;21.70;99.90
27741;DHT22;15134;48.768;9.184;2023-08-17T04:50:09;21.70;99.90
27741;DHT22;15134;48.768;9.184;2023-08-17T04:52:35;21.70;99.90
27741;DHT22;15134;48.768;9.184;2023-08-17T04:55:01;21.70;99.90
27741;DHT22;15134;48.768;9.184;2023-08-17T04:57:29;21.80;99.90
27741;DHT22;15134;48.768;9.184;2023-08-17T04:59:55;21.80;99.90
27741;DHT22;15134;48.768;9.184;2023-08-17T05:02:22;21.80;99.90
27741;DHT22;15134;48.768;9.184;2023-08-17T05:04:48;21.80;99.90
27741;DHT22;15134;48.768;9.184;2023-08-17T05:07:14;21.90;99.90
27741;DHT22;15134;48.768;9.184;2023-08-17T05:09:40;21.90;99.90
27741;DHT22;15134;48.768;9.184;2023-08-17T05:12:07;22.00;99.90
27741;DHT22;15134;48.768;9.184;2023-08-17T05:14:32;22.00;99.90
27741;DHT22;15134;48.768;9.184;2023-08-17T05:16:58;22.00;99.90
27741;DHT22;15134;48.768;9.184;2023-08-17T05:19:24;22.00;99.90
27741;DHT22;15134;48.768;9.184;2023-08-17T05:21:54;21.90;99.90
27741;DHT22;15134;48.768;9.184;2023-08-17T05:24:22;22.00;99.90
27741;DHT22;15134;48.768;9.184;2023-08-17T05:26:48;22.00;99.90
27741;DHT22;15134;48.768;9.184;2023-08-17T05:29:14;22.10;99.90
27741;DHT22;15134;48.768;9.184;2023-08-17T05:31:40;22.10;99.90
27741;DHT22;15134;48.768;9.184;2023-08-17T05:34:06;22.10;99.90
27741;DHT22;15134;48.768;9.184;2023-08-17T05:36:32;22.10;99.90
27741;DHT22;15134;48.768;9.184;2023-08-17T05:38:58;22.10;99.90
27741;DHT22;15134;48.768;9.184;2023-08-17T05:41:24;22.10;99.90
27741;DHT22;15134;48.768;9.184;2023-08-17T05:43:50;22.10;99.90
27741;DHT22;15134;48.768;9.184;2023-08-17T05:46:16;22.20;99.90
27741;DHT22;15134;48.768;9.184;2023-08-17T05:48:44;22.20;99.90
27741;DHT22;15134;48.768;9.184;2023-08-17T05:51:09;22.20;99.90
27741;DHT22;15134;48.768;9.184;2023-08-17T05:53:35;22.20;99.90
27741;DHT22;15134;48.768;9.184;2023-08-17T05:56:01;22.30;99.90
27741;DHT22;15134;48.768;9.184;2023-08-17T05:58:27;22.30;99.90
27741;DHT22;15134;48.768;9.184;2023-08-17T06:00:55;22.40;99.90
27741;DHT22;15134;48.768;9.184;2023-08-17T06:03:35;22.40;99.90
27741;DHT22;15134;48.768;9.184;2023-08-17T06:06:04;22.50;99.90
27741;DHT22;15134;48.768;9.184;2023-08-17T06:08:31;22.50;99.90
27741;DHT22;15134;48.768;9.184;2023-08-17T06:10:57;22.50;99.90
27741;DHT22;15134;48.768;9.184;2023-08-17T06:13:22;22.60;99.90
27741;DHT22;15134;48.768;9.184;2023-08-17T06:15:56;22.60;99.90
27741;DHT22;15134;48.768;9.184;2023-08-17T06:18:22;22.60;99.90
27741;DHT22;15134;48.768;9.184;2023-08-17T06:20:48;22.60;99.90
27741;DHT22;15134;48.768;9.184;2023-08-17T06:23:17;22.60;99.90
27741;DHT22;15134;48.768;9.184;2023-08-17T06:25:43;22.70;99.90
27741;DHT22;15134;48.768;9.184;2023-08-17T06:28:08;22.70;99.90
27741;DHT22;15134;48.768;9.184;2023-08-17T06:30:34;22.70;99.90
27741;DHT22;15134;48.768;9.184;2023-08-17T06:33:00;22.60;99.90
27741;DHT22;15134;48.768;9.184;2023-08-17T06:35:26;22.70;99.90
27741;DHT22;15134;48.768;9.184;2023-08-17T06:37:51;22.90;99.90
27741;DHT22;15134;48.768;9.184;2023-08-17T06:40:19;22.90;99.90
27741;DHT22;15134;48.768;9.184;2023-08-17T06:42:45;23.00;99.90
27741;DHT22;15134;48.768;9.184;2023-08-17T06:45:11;23.00;99.90
27741;DHT22;15134;48.768;9.184;2023-08-17T06:47:37;23.00;99.90
27741;DHT22;15134;48.768;9.184;2023-08-17T06:50:03;22.90;99.90
27741;DHT22;15134;48.768;9.184;2023-08-17T06:52:28;22.90;99.90
27741;DHT22;15134;48.768;9.184;2023-08-17T06:54:54;23.00;99.90
27741;DHT22;15134;48.768;9.184;2023-08-17T06:57:23;23.00;99.90
27741;DHT22;15134;48.768;9.184;2023-08-17T06:59:51;23.00;99.90
27741;DHT22;15134;48.768;9.184;2023-08-17T07:02:16;23.30;99.90
27741;DHT22;15134;48.768;9.184;2023-08-17T07:04:42;23.70;99.90
27741;DHT22;15134;48.768;9.184;2023-08-17T07:07:08;24.20;99.90
27741;DHT22;15134;48.768;9.184;2023-08-17T07:09:33;24.90;99.90
27741;DHT22;15134;48.768;9.184;2023-08-17T07:11:59;25.50;99.90
27741;DHT22;15134;48.768;9.184;2023-08-17T07:14:25;25.90;99.90
27741;DHT22;15134;48.768;9.184;2023-08-17T07:16:51;26.30;99.90
27741;DHT22;15134;48.768;9.184;2023-08-17T07:19:17;26.90;99.90
27741;DHT22;15134;48.768;9.184;2023-08-17T07:21:44;27.30;99.90
27741;DHT22;15134;48.768;9.184;2023-08-17T07:24:15;27.80;99.90
27741;DHT22;15134;48.768;9.184;2023-08-17T07:26:41;28.20;99.90
27741;DHT22;15134;48.768;9.184;2023-08-17T07:29:07;28.70;99.90
27741;DHT22;15134;48.768;9.184;2023-08-17T07:31:35;28.90;99.90
27741;DHT22;15134;48.768;9.184;2023-08-17T07:34:06;29.30;99.90
27741;DHT22;15134;48.768;9.184;2023-08-17T07:36:33;29.60;99.90
27741;DHT22;15134;48.768;9.184;2023-08-17T07:38:59;29.90;99.90
27741;DHT22;15134;48.768;9.184;2023-08-17T07:41:25;30.20;99.90
27741;DHT22;15134;48.768;9.184;2023-08-17T07:43:51;30.40;99.90
27741;DHT22;15134;48.768;9.184;2023-08-17T07:46:17;30.70;99.90
27741;DHT22;15134;48.768;9.184;2023-08-17T07:48:43;31.10;99.90
27741;DHT22;15134;48.768;9.184;2023-08-17T07:51:11;31.30;99.90
27741;DHT22;15134;48.768;9.184;2023-08-17T07:53:37;31.20;99.90
27741;DHT22;15134;48.768;9.184;2023-08-17T07:56:03;31.50;99.90
27741;DHT22;15134;48.768;9.184;2023-08-17T07:58:28;32.00;99.90
27741;DHT22;15134;48.768;9.184;2023-08-17T08:00:54;32.30;99.90
27741;DHT22;15134;48.768;9.184;2023-08-17T08:03:20;32.70;99.90
27741;DHT22;15134;48.768;9.184;2023-08-17T08:05:46;33.00;99.90
27741;DHT22;15134;48.768;9.184;2023-08-17T08:08:12;34.20;99.90
27741;DHT22;15134;48.768;9.184;2023-08-17T08:10:40;35.30;99.90
27741;DHT22;15134;48.768;9.184;2023-08-17T08:13:06;35.70;99.90
27741;DHT22;15134;48.768;9.184;2023-08-17T08:15:33;35.60;99.90
27741;DHT22;15134;48.768;9.184;2023-08-17T08:17:59;36.30;99.90
27741;DHT22;15134;48.768;9.184;2023-08-17T08:20:24;37.40;99.90
27741;DHT22;15134;48.768;9.184;2023-08-17T08:22:50;38.10;99.90
27741;DHT22;15134;48.768;9.184;2023-08-17T08:25:16;38.10;99.90
27741;DHT22;15134;48.768;9.184;2023-08-17T08:27:42;38.90;99.90
27741;DHT22;15134;48.768;9.184;2023-08-17T08:30:07;39.50;99.90
27741;DHT22;15134;48.768;9.184;2023-08-17T08:32:33;40.10;99.90
27741;DHT22;15134;48.768;9.184;2023-08-17T08:34:59;40.50;99.90
27741;DHT22;15134;48.768;9.184;2023-08-17T08:37:25;40.80;99.90
27741;DHT22;15134;48.768;9.184;2023-08-17T08:39:52;41.00;99.90
27741;DHT22;15134;48.768;9.184;2023-08-17T08:42:24;40.50;99.70
27741;DHT22;15134;48.768;9.184;2023-08-17T08:44:50;39.50;99.60
27741;DHT22;15134;48.768;9.184;2023-08-17T08:47:18;39.10;99.90
27741;DHT22;15134;48.768;9.184;2023-08-17T08:50:01;39.50;99.90
27741;DHT22;15134;48.768;9.184;2023-08-17T08:52:35;40.40;98.70
27741;DHT22;15134;48.768;9.184;2023-08-17T08:55:16;40.80;97.50
27741;DHT22;15134;48.768;9.184;2023-08-17T08:57:43;40.90;96.70
27741;DHT22;15134;48.768;9.184;2023-08-17T09:00:12;41.30;96.50
27741;DHT22;15134;48.768;9.184;2023-08-17T09:02:38;41.50;96.40
27741;DHT22;15134;48.768;9.184;2023-08-17T09:05:11;41.90;95.70
27741;DHT22;15134;48.768;9.184;2023-08-17T09:07:38;42.00;95.70
27741;DHT22;15134;48.768;9.184;2023-08-17T09:10:07;42.10;94.80
27741;DHT22;15134;48.768;9.184;2023-08-17T09:12:33;42.10;94.60
27741;DHT22;15134;48.768;9.184;2023-08-17T09:14:59;42.20;94.70
27741;DHT22;15134;48.768;9.184;2023-08-17T09:17:25;42.30;93.50
27741;DHT22;15134;48.768;9.184;2023-08-17T09:19:51;42.10;94.00
27741;DHT22;15134;48.768;9.184;2023-08-17T09:22:24;42.20;93.80
27741;DHT22;15134;48.768;9.184;2023-08-17T09:24:50;42.30;93.30
27741;DHT22;15134;48.768;9.184;2023-08-17T09:27:23;42.40;93.00
27741;DHT22;15134;48.768;9.184;2023-08-17T09:29:49;42.70;92.80
27741;DHT22;15134;48.768;9.184;2023-08-17T09:32:15;42.80;92.20
27741;DHT22;15134;48.768;9.184;2023-08-17T09:34:43;42.50;92.00
27741;DHT22;15134;48.768;9.184;2023-08-17T09:37:11;41.50;92.50
27741;DHT22;15134;48.768;9.184;2023-08-17T09:39:38;40.50;93.20
27741;DHT22;15134;48.768;9.184;2023-08-17T09:42:04;39.40;94.10
27741;DHT22;15134;48.768;9.184;2023-08-17T09:44:33;38.40;95.50
27741;DHT22;15134;48.768;9.184;2023-08-17T09:46:59;37.50;96.60
27741;DHT22;15134;48.768;9.184;2023-08-17T09:49:25;36.80;98.00
27741;DHT22;15134;48.768;9.184;2023-08-17T09:51:50;36.20;99.00
27741;DHT22;15134;48.768;9.184;2023-08-17T09:54:23;35.70;99.20
27741;DHT22;15134;48.768;9.184;2023-08-17T09:56:53;35.10;99.90
27741;DHT22;15134;48.768;9.184;2023-08-17T09:59:19;34.60;99.90
27741;DHT22;15134;48.768;9.184;2023-08-17T10:01:49;34.00;99.90
27741;DHT22;15134;48.768;9.184;2023-08-17T10:04:23;33.50;99.90
27741;DHT22;15134;48.768;9.184;2023-08-17T10:06:52;33.20;99.90
27741;DHT22;15134;48.768;9.184;2023-08-17T10:09:24;32.90;99.90
27741;DHT22;15134;48.768;9.184;2023-08-17T10:11:52;32.80;99.90
27741;DHT22;15134;48.768;9.184;2023-08-17T10:14:42;32.50;99.90
27741;DHT22;15134;48.768;9.184;2023-08-17T10:17:15;32.20;99.90
27741;DHT22;15134;48.768;9.184;2023-08-17T10:25:29;31.40;99.90
27741;DHT22;15134;48.768;9.184;2023-08-17T10:27:55;31.20;99.90
27741;DHT22;15134;48.768;9.184;2023-08-17T10:30:22;31.00;99.90
27741;DHT22;15134;48.768;9.184;2023-08-17T10:32:48;30.70;99.90
27741;DHT22;15134;48.768;9.184;2023-08-17T10:35:14;30.50;99.90
27741;DHT22;15134;48.768;9.184;2023-08-17T10:37:41;30.40;99.90
27741;DHT22;15134;48.768;9.184;2023-08-17T10:40:07;30.50;99.90
27741;DHT22;15134;48.768;9.184;2023-08-17T10:42:34;30.60;99.90
27741;DHT22;15134;48.768;9.184;2023-08-17T10:47:37;30.10;99.90
27741;DHT22;15134;48.768;9.184;2023-08-17T10:50:23;29.90;99.90
27741;DHT22;15134;48.768;9.184;2023-08-17T10:52:51;29.90;99.90
27741;DHT22;15134;48.768;9.184;2023-08-17T10:55:46;29.80;99.90
27741;DHT22;15134;48.768;9.184;2023-08-17T10:58:16;29.80;99.90
27741;DHT22;15134;48.768;9.184;2023-08-17T11:00:42;30.00;99.90
27741;DHT22;15134;48.768;9.184;2023-08-17T11:03:17;30.30;99.90
27741;DHT22;15134;48.768;9.184;2023-08-17T11:05:46;30.60;99.90
27741;DHT22;15134;48.768;9.184;2023-08-17T11:08:29;30.70;99.90
27741;DHT22;15134;48.768;9.184;2023-08-17T11:13:44;30.70;99.90
27741;DHT22;15134;48.768;9.184;2023-08-17T11:16:12;30.60;99.90
27741;DHT22;15134;48.768;9.184;2023-08-17T11:18:39;30.50;99.90
27741;DHT22;15134;48.768;9.184;2023-08-17T11:21:07;30.60;99.90
27741;DHT22;15134;48.768;9.184;2023-08-17T11:23:35;30.70;99.90
27741;DHT22;15134;48.768;9.184;2023-08-17T11:26:01;30.70;99.90
27741;DHT22;15134;48.768;9.184;2023-08-17T11:28:30;30.70;99.90
27741;DHT22;15134;48.768;9.184;2023-08-17T11:31:03;30.70;99.90
27741;DHT22;15134;48.768;9.184;2023-08-17T11:33:30;30.50;99.90
27741;DHT22;15134;48.768;9.184;2023-08-17T11:35:57;30.30;99.90
27741;DHT22;15134;48.768;9.184;2023-08-17T11:38:23;30.10;99.90
27741;DHT22;15134;48.768;9.184;2023-08-17T11:40:49;30.10;99.90
27741;DHT22;15134;48.768;9.184;2023-08-17T11:43:16;30.10;99.90
27741;DHT22;15134;48.768;9.184;2023-08-17T11:45:42;30.10;99.90
27741;DHT22;15134;48.768;9.184;2023-08-17T11:48:08;30.00;99.90
27741;DHT22;15134;48.768;9.184;2023-08-17T11:50:35;30.10;99.90
27741;DHT22;15134;48.768;9.184;2023-08-17T11:53:01;30.20;99.90
27741;DHT22;15134;48.768;9.184;2023-08-17T11:55:27;30.30;99.90
27741;DHT22;15134;48.768;9.184;2023-08-17T11:57:53;30.40;99.90
27741;DHT22;15134;48.768;9.184;2023-08-17T12:00:21;30.50;99.90
27741;DHT22;15134;48.768;9.184;2023-08-17T12:02:48;30.40;99.90
27741;DHT22;15134;48.768;9.184;2023-08-17T12:05:22;30.30;99.90
27741;DHT22;15134;48.768;9.184;2023-08-17T12:07:50;30.20;99.90
27741;DHT22;15134;48.768;9.184;2023-08-17T12:10:17;30.10;99.90
27741;DHT22;15134;48.768;9.184;2023-08-17T12:12:43;30.10;99.90
27741;DHT22;15134;48.768;9.184;2023-08-17T12:15:10;30.10;99.90
27741;DHT22;15134;48.768;9.184;2023-08-17T12:17:43;30.20;99.90
27741;DHT22;15134;48.768;9.184;2023-08-17T12:20:21;30.20;99.90
27741;DHT22;15134;48.768;9.184;2023-08-17T12:22:47;30.20;99.90
27741;DHT22;15134;48.768;9.184;2023-08-17T12:25:13;30.10;99.90
27741;DHT22;15134;48.768;9.184;2023-08-17T12:27:39;30.10;99.90
27741;DHT22;15134;48.768;9.184;2023-08-17T12:30:13;30.00;99.90
27741;DHT22;15134;48.768;9.184;2023-08-17T12:32:39;29.90;99.90
27741;DHT22;15134;48.768;9.184;2023-08-17T12:35:05;29.80;99.90
27741;DHT22;15134;48.768;9.184;2023-08-17T12:37:31;29.70;99.90
27741;DHT22;15134;48.768;9.184;2023-08-17T12:39:57;29.70;99.90
27741;DHT22;15134;48.768;9.184;2023-08-17T12:42:23;29.60;99.90
27741;DHT22;15134;48.768;9.184;2023-08-17T12:44:49;29.40;99.90
27741;DHT22;15134;48.768;9.184;2023-08-17T12:47:14;29.20;99.90
27741;DHT22;15134;48.768;9.184;2023-08-17T12:49:40;29.00;99.90
27741;DHT22;15134;48.768;9.184;2023-08-17T12:52:06;28.90;99.90
27741;DHT22;15134;48.768;9.184;2023-08-17T12:54:33;28.90;99.90
27741;DHT22;15134;48.768;9.184;2023-08-17T12:56:59;28.80;99.90
27741;DHT22;15134;48.768;9.184;2023-08-17T12:59:25;28.60;99.90
27741;DHT22;15134;48.768;9.184;2023-08-17T13:01:51;28.50;99.90
27741;DHT22;15134;48.768;9.184;2023-08-17T13:04:17;28.30;99.90
27741;DHT22;15134;48.768;9.184;2023-08-17T13:06:43;28.10;99.90
27741;DHT22;15134;48.768;9.184;2023-08-17T13:09:08;28.00;99.90
27741;DHT22;15134;48.768;9.184;2023-08-17T13:11:34;28.00;99.90
27741;DHT22;15134;48.768;9.184;2023-08-17T13:14:00;28.00;99.90
27741;DHT22;15134;48.768;9.184;2023-08-17T13:16:26;28.00;99.90
27741;DHT22;15134;48.768;9.184;2023-08-17T13:18:51;28.00;99.90
27741;DHT22;15134;48.768;9.184;2023-08-17T13:21:17;27.90;99.90
27741;DHT22;15134;48.768;9.184;2023-08-17T13:23:43;27.90;99.90
27741;DHT22;15134;48.768;9.184;2023-08-17T13:26:10;27.90;99.90
27741;DHT22;15134;48.768;9.184;2023-08-17T13:28:35;27.80;99.90
27741;DHT22;15134;48.768;9.184;2023-08-17T13:31:01;27.60;99.90
27741;DHT22;15134;48.768;9.184;2023-08-17T13:33:27;27.50;99.90
27741;DHT22;15134;48.768;9.184;2023-08-17T13:35:54;27.40;99.90
27741;DHT22;15134;48.768;9.184;2023-08-17T13:38:23;27.20;99.90
27741;DHT22;15134;48.768;9.184;2023-08-17T13:40:49;27.10;99.90
27741;DHT22;15134;48.768;9.184;2023-08-17T13:43:15;26.80;99.90
27741;DHT22;15134;48.768;9.184;2023-08-17T13:45:41;26.50;99.90
27741;DHT22;15134;48.768;9.184;2023-08-17T13:48:07;26.20;99.90
27741;DHT22;15134;48.768;9.184;2023-08-17T13:50:36;26.20;99.90
27741;DHT22;15134;48.768;9.184;2023-08-17T13:53:08;26.20;99.90
27741;DHT22;15134;48.768;9.184;2023-08-17T13:55:34;26.30;99.90
27741;DHT22;15134;48.768;9.184;2023-08-17T13:58:00;26.30;99.90
27741;DHT22;15134;48.768;9.184;2023-08-17T14:00:26;26.30;99.90
27741;DHT22;15134;48.768;9.184;2023-08-17T14:02:52;26.30;99.90
27741;DHT22;15134;48.768;9.184;2023-08-17T14:05:18;26.10;99.90
27741;DHT22;15134;48.768;9.184;2023-08-17T14:07:48;26.00;99.90
27741;DHT22;15134;48.768;9.184;2023-08-17T14:10:14;25.90;99.90
27741;DHT22;15134;48.768;9.184;2023-08-17T14:12:40;25.90;99.90
27741;DHT22;15134;48.768;9.184;2023-08-17T14:15:06;26.00;99.90
27741;DHT22;15134;48.768;9.184;2023-08-17T14:17:32;26.00;99.90
27741;DHT22;15134;48.768;9.184;2023-08-17T14:19:58;26.00;99.90
27741;DHT22;15134;48.768;9.184;2023-08-17T14:22:25;26.10;99.90
27741;DHT22;15134;48.768;9.184;2023-08-17T14:24:50;26.10;99.90
27741;DHT22;15134;48.768;9.184;2023-08-17T14:27:19;26.10;99.90
27741;DHT22;15134;48.768;9.184;2023-08-17T14:29:45;26.10;99.90
27741;DHT22;15134;48.768;9.184;2023-08-17T14:32:10;26.00;99.90
27741;DHT22;15134;48.768;9.184;2023-08-17T14:34:36;26.00;99.90
27741;DHT22;15134;48.768;9.184;2023-08-17T14:37:02;25.90;99.90
27741;DHT22;15134;48.768;9.184;2023-08-17T14:39:28;25.90;99.90
27741;DHT22;15134;48.768;9.184;2023-08-17T14:41:54;25.90;99.90
27741;DHT22;15134;48.768;9.184;2023-08-17T14:44:19;26.00;99.90
27741;DHT22;15134;48.768;9.184;2023-08-17T14:46:46;26.00;99.90
27741;DHT22;15134;48.768;9.184;2023-08-17T14:49:12;26.00;99.90
27741;DHT22;15134;48.768;9.184;2023-08-17T14:51:39;26.00;99.90
27741;DHT22;15134;48.768;9.184;2023-08-17T14:54:06;26.00;99.90
27741;DHT22;15134;48.768;9.184;2023-08-17T14:56:32;26.00;99.90
27741;DHT22;15134;48.768;9.184;2023-08-17T14:58:58;26.00;99.90
27741;DHT22;15134;48.768;9.184;2023-08-17T15:01:24;26.00;99.90
27741;DHT22;15134;48.768;9.184;2023-08-17T15:03:50;26.00;99.90
27741;DHT22;15134;48.768;9.184;2023-08-17T15:06:21;26.10;99.90
27741;DHT22;15134;48.768;9.184;2023-08-17T15:08:50;26.10;99.90
27741;DHT22;15134;48.768;9.184;2023-08-17T15:11:15;26.20;99.90
27741;DHT22;15134;48.768;9.184;2023-08-17T15:13:41;26.20;99.90
27741;DHT22;15134;48.768;9.184;2023-08-17T15:16:07;26.20;99.90
27741;DHT22;15134;48.768;9.184;2023-08-17T15:18:35;26.20;99.90
27741;DHT22;15134;48.768;9.184;2023-08-17T15:21:00;26.30;99.90
27741;DHT22;15134;48.768;9.184;2023-08-17T15:23:26;26.30;99.90
27741;DHT22;15134;48.768;9.184;2023-08-17T15:25:52;26.30;99.90
27741;DHT22;15134;48.768;9.184;2023-08-17T15:28:18;26.30;99.90
27741;DHT22;15134;48.768;9.184;2023-08-17T15:30:44;26.40;99.90
27741;DHT22;15134;48.768;9.184;2023-08-17T15:33:11;26.30;99.90
27741;DHT22;15134;48.768;9.184;2023-08-17T15:35:37;26.30;99.90
27741;DHT22;15134;48.768;9.184;2023-08-17T15:38:03;26.30;99.90
27741;DHT22;15134;48.768;9.184;2023-08-17T15:40:31;26.30;99.90
27741;DHT22;15134;48.768;9.184;2023-08-17T15:42:59;26.30;99.90